createdAt,value
2023-11-13T00:00:32.747Z,99673.15
2023-11-13T00:03:20.662Z,99676.33
2023-11-13T00:05:48.982Z,99677.75
2023-11-13T00:08:16.882Z,99684.10
2023-11-13T00:10:47.142Z,99686.20
2023-11-13T00:13:15.496Z,99688.86
2023-11-13T00:15:43.956Z,99690.46
2023-11-13T00:18:12.008Z,99690.34
2023-11-13T00:20:40.125Z,99690.05
2023-11-13T00:23:07.955Z,99695.66
2023-11-13T00:25:36.124Z,99693.73
2023-11-13T00:28:04.591Z,99698.92
2023-11-13T00:30:32.679Z,99699.80
2023-11-13T00:33:00.705Z,99695.74
2023-11-13T00:35:29.053Z,99691.52
2023-11-13T00:37:58.888Z,99690.12
2023-11-13T00:40:27.353Z,99690.07
2023-11-13T00:42:55.863Z,99690.42
2023-11-13T00:45:23.740Z,99686.10
2023-11-13T00:47:51.621Z,99685.90
2023-11-13T00:50:19.862Z,99687.98
2023-11-13T00:52:48.356Z,99687.62
2023-11-13T00:55:16.456Z,99689.35
2023-11-13T00:57:44.824Z,99693.41
2023-11-13T01:00:14.632Z,99696.55
2023-11-13T01:02:42.885Z,99692.97
2023-11-13T01:05:13.044Z,99689.21
2023-11-13T01:07:41.166Z,99688.93
2023-11-13T01:10:10.196Z,99686.66
2023-11-13T01:12:38.221Z,99691.91
2023-11-13T01:15:08.428Z,99696.80
2023-11-13T01:17:37.291Z,99697.52
2023-11-13T01:20:07.494Z,99698.61
2023-11-13T01:22:35.509Z,99701.59
2023-11-13T01:25:04.466Z,99700.93
2023-11-13T01:27:32.792Z,99704.61
2023-11-13T01:30:00.759Z,99709.00
2023-11-13T01:32:28.808Z,99713.39
2023-11-13T01:34:57.600Z,99719.34
2023-11-13T01:37:25.628Z,99717.48
2023-11-13T01:39:54.550Z,99716.02
2023-11-13T01:42:23.038Z,99715.73
2023-11-13T01:44:52.349Z,99716.70
2023-11-13T01:47:20.193Z,99715.00
2023-11-13T01:49:48.390Z,99709.52
2023-11-13T01:52:16.328Z,99707.67
2023-11-13T01:54:44.672Z,99704.31
2023-11-13T01:57:13.313Z,99704.50
2023-11-13T01:59:43.800Z,99701.61
2023-11-13T02:02:12.341Z,99698.42
2023-11-13T02:04:40.768Z,99692.70
2023-11-13T02:07:09.009Z,99690.83
2023-11-13T02:09:37.576Z,99685.85
2023-11-13T02:12:06.479Z,99681.36
2023-11-13T02:14:34.524Z,99675.90
2023-11-13T02:17:04.417Z,99675.39
2023-11-13T02:19:33.495Z,99679.55
2023-11-13T02:22:02.252Z,99677.31
2023-11-13T02:24:30.637Z,99671.58
2023-11-13T02:26:59.542Z,99675.57
2023-11-13T02:29:28.167Z,99683.02
2023-11-13T02:31:57.372Z,99685.75
2023-11-13T02:34:25.821Z,99687.29
2023-11-13T02:36:54.130Z,99684.30
2023-11-13T02:39:22.794Z,99677.33
2023-11-13T02:41:53.326Z,99671.75
2023-11-13T02:44:21.260Z,99678.33
2023-11-13T02:46:49.933Z,99676.39
2023-11-13T02:49:18.326Z,99675.14
2023-11-13T02:51:46.306Z,99671.83
2023-11-13T02:54:15.310Z,99671.61
2023-11-13T02:56:43.421Z,99679.54
2023-11-13T02:59:11.234Z,99682.04
2023-11-13T03:01:39.760Z,99682.13
2023-11-13T03:04:08.006Z,99679.06
2023-11-13T03:06:36.243Z,99673.58
2023-11-13T03:09:05.962Z,99672.75
2023-11-13T03:11:34.075Z,99671.10
2023-11-13T03:14:02.032Z,99675.42
2023-11-13T03:16:30.025Z,99675.85
2023-11-13T03:18:58.301Z,99670.63
2023-11-13T03:21:26.121Z,99671.50
2023-11-13T03:23:53.935Z,99667.15
2023-11-13T03:26:22.142Z,99667.91
2023-11-13T03:28:50.005Z,99662.73
2023-11-13T03:31:18.818Z,99660.63
2023-11-13T03:33:47.292Z,99657.14
2023-11-13T03:36:15.145Z,99660.62
2023-11-13T03:38:43.170Z,99659.92
2023-11-13T03:41:11.463Z,99666.84
2023-11-13T03:43:39.346Z,99675.31
2023-11-13T03:46:07.266Z,99674.58
2023-11-13T03:48:35.281Z,99674.75
2023-11-13T03:51:03.705Z,99684.10
2023-11-13T03:53:31.510Z,99689.29
2023-11-13T03:55:59.868Z,99685.44
2023-11-13T03:58:27.783Z,99681.39
2023-11-13T04:00:55.760Z,99677.36
2023-11-13T04:03:24.068Z,99681.08
2023-11-13T04:05:52.233Z,99690.27
2023-11-13T04:08:20.099Z,99692.57
2023-11-13T04:10:49.311Z,99690.71
2023-11-13T04:13:20.123Z,99689.19
2023-11-13T04:15:48.353Z,99696.02
2023-11-13T04:18:16.693Z,99694.25
2023-11-13T04:20:45.513Z,99693.23
2023-11-13T04:23:13.430Z,99690.80
2023-11-13T04:25:47.243Z,99693.68
2023-11-13T04:28:15.777Z,99698.45
2023-11-13T04:30:44.000Z,99703.85
2023-11-13T04:33:12.369Z,99707.67
2023-11-13T04:35:40.821Z,99701.39
2023-11-13T04:38:09.047Z,99699.53
2023-11-13T04:40:37.525Z,99698.05
2023-11-13T04:43:07.327Z,99700.27
2023-11-13T04:45:36.556Z,99704.71
2023-11-13T04:48:06.405Z,99698.91
2023-11-13T04:50:34.357Z,99702.32
2023-11-13T04:53:02.362Z,99707.81
2023-11-13T04:55:32.171Z,99712.31
2023-11-13T04:58:00.333Z,99712.09
2023-11-13T05:00:28.537Z,99710.72
2023-11-13T05:02:57.038Z,99706.89
2023-11-13T05:05:26.951Z,99702.77
2023-11-13T05:07:55.053Z,99708.88
2023-11-13T05:10:23.236Z,99713.42
2023-11-13T05:12:51.256Z,99714.34
2023-11-13T05:15:19.293Z,99718.92
2023-11-13T05:17:47.816Z,99719.17
2023-11-13T05:20:17.467Z,99713.94
2023-11-13T05:22:45.577Z,99726.53
2023-11-13T05:25:13.758Z,99725.61
2023-11-13T05:27:42.150Z,99725.39
2023-11-13T05:30:11.309Z,99725.13
2023-11-13T05:32:39.407Z,99722.69
2023-11-13T05:35:07.944Z,99725.42
2023-11-13T05:37:35.947Z,99727.85
2023-11-13T05:40:07.041Z,99726.11
2023-11-13T05:42:38.451Z,99728.48
2023-11-13T05:45:08.558Z,99731.80
2023-11-13T05:47:36.388Z,99729.71
2023-11-13T05:50:05.727Z,99731.11
2023-11-13T05:52:33.640Z,99734.25
2023-11-13T05:55:01.566Z,99737.68
2023-11-13T05:57:29.672Z,99735.60
2023-11-13T05:59:57.809Z,99739.73
2023-11-13T06:02:25.687Z,99746.20
2023-11-13T06:04:53.881Z,99742.55
2023-11-13T06:07:21.936Z,99745.80
2023-11-13T06:09:49.761Z,99745.58
2023-11-13T06:12:17.787Z,99739.82
2023-11-13T06:14:46.548Z,99736.83
2023-11-13T06:17:16.523Z,99733.11
2023-11-13T06:19:44.607Z,99734.94
2023-11-13T06:22:12.854Z,99739.37
2023-11-13T06:24:40.891Z,99740.33
2023-11-13T06:27:09.091Z,99742.16
2023-11-13T06:29:37.419Z,99737.91
2023-11-13T06:32:06.546Z,99742.90
2023-11-13T06:34:35.221Z,99748.38
2023-11-13T06:37:03.804Z,99746.59
2023-11-13T06:39:31.688Z,99754.19
2023-11-13T06:42:00.042Z,99758.27
2023-11-13T06:44:28.506Z,99763.59
2023-11-13T06:46:56.746Z,99765.59
2023-11-13T06:49:25.479Z,99764.48
2023-11-13T06:51:53.785Z,99767.37
2023-11-13T06:54:22.180Z,99764.33
2023-11-13T06:56:50.198Z,99769.41
2023-11-13T06:59:19.996Z,99768.55
2023-11-13T07:01:49.279Z,99769.70
2023-11-13T07:04:17.362Z,99773.25
2023-11-13T07:06:46.885Z,99775.07
2023-11-13T07:09:15.937Z,99774.67
2023-11-13T07:11:45.800Z,99779.32
2023-11-13T07:14:14.622Z,99780.52
2023-11-13T07:16:43.615Z,99781.56
2023-11-13T07:19:14.941Z,99780.69
2023-11-13T07:21:43.221Z,99779.45
2023-11-13T07:24:11.954Z,99782.39
2023-11-13T07:26:43.399Z,99787.13
2023-11-13T07:29:16.494Z,99786.07
2023-11-13T07:31:44.565Z,99786.51
2023-11-13T07:34:12.736Z,99785.57
2023-11-13T07:36:40.706Z,99785.77
2023-11-13T07:39:11.422Z,99782.38
2023-11-13T07:41:39.459Z,99782.60
2023-11-13T07:44:10.385Z,99778.04
2023-11-13T07:46:39.077Z,99775.89
2023-11-13T07:49:09.524Z,99775.36
2023-11-13T07:51:38.261Z,99776.80
2023-11-13T07:54:06.262Z,99777.73
2023-11-13T07:56:34.790Z,99772.94
2023-11-13T07:59:08.938Z,99772.06
2023-11-13T08:01:39.052Z,99771.94
2023-11-13T08:04:08.611Z,99770.00
2023-11-13T08:06:36.939Z,99765.46
2023-11-13T08:09:10.157Z,99767.80
2023-11-13T08:11:39.324Z,99768.84
2023-11-13T08:14:07.247Z,99768.31
2023-11-13T08:16:35.647Z,99767.30
2023-11-13T08:19:04.396Z,99768.14
2023-11-13T08:21:32.711Z,99765.02
2023-11-13T08:24:04.090Z,99760.78
2023-11-13T08:26:34.257Z,99759.23
2023-11-13T08:29:02.166Z,99757.89
2023-11-13T08:31:32.474Z,99754.15
2023-11-13T08:34:00.981Z,99754.02
2023-11-13T08:36:29.721Z,99755.27
2023-11-13T08:38:57.716Z,99757.88
2023-11-13T08:41:26.102Z,99760.83
2023-11-13T08:43:54.296Z,99764.35
2023-11-13T08:46:23.293Z,99767.11
2023-11-13T08:48:52.299Z,99769.91
2023-11-13T08:51:29.124Z,99772.36
2023-11-13T08:54:01.611Z,99767.56
2023-11-13T08:56:29.679Z,99762.25
2023-11-13T08:58:57.612Z,99759.25
2023-11-13T09:01:27.612Z,99761.23
2023-11-13T09:03:56.321Z,99755.92
2023-11-13T09:06:24.534Z,99752.77
2023-11-13T09:08:55.355Z,99757.31
2023-11-13T09:11:28.009Z,99761.56
2023-11-13T09:14:01.530Z,99761.20
2023-11-13T09:16:30.000Z,99761.85
2023-11-13T09:19:00.631Z,99759.42
2023-11-13T09:21:30.181Z,99760.36
2023-11-13T09:23:59.353Z,99756.35
2023-11-13T09:26:27.776Z,99753.59
2023-11-13T09:28:56.801Z,99757.64
2023-11-13T09:31:25.017Z,99754.56
2023-11-13T09:38:27.578Z,99758.96
2023-11-13T09:41:00.641Z,99757.77
2023-11-13T09:43:35.519Z,99758.38
2023-11-13T09:46:05.525Z,99758.84
2023-11-13T09:48:45.560Z,99762.61
2023-11-13T09:51:27.221Z,99764.45
2023-11-13T09:54:00.510Z,99760.74
2023-11-13T09:56:31.018Z,99758.91
2023-11-13T09:59:01.111Z,99768.88
2023-11-13T10:01:30.854Z,99767.30
2023-11-13T10:03:59.548Z,99762.91
2023-11-13T10:06:31.415Z,99755.52
2023-11-13T10:08:59.256Z,99745.48
2023-11-13T10:11:30.874Z,99743.50
2023-11-13T10:14:18.178Z,99736.55
2023-11-13T10:16:58.104Z,99731.84
2023-11-13T10:19:26.960Z,99733.75
2023-11-13T10:21:58.738Z,99736.08
2023-11-13T10:24:35.262Z,99733.39
2023-11-13T10:27:13.871Z,99725.28
2023-11-13T10:29:43.236Z,99722.02
2023-11-13T10:32:11.325Z,99715.00
2023-11-13T10:34:47.125Z,99710.25
2023-11-13T10:37:19.572Z,99709.46
2023-11-13T10:39:49.177Z,99700.00
2023-11-13T10:42:25.674Z,99700.27
2023-11-13T10:44:58.213Z,99705.82
2023-11-13T10:47:36.692Z,99703.66
2023-11-13T10:50:17.346Z,99705.24
2023-11-13T10:52:49.045Z,99704.67
2023-11-13T10:55:20.652Z,99706.97
2023-11-13T10:57:48.656Z,99703.36
2023-11-13T11:00:17.377Z,99701.44
2023-11-13T11:02:52.622Z,99700.14
2023-11-13T11:05:27.491Z,99696.23
2023-11-13T11:07:57.503Z,99692.78
2023-11-13T11:10:27.422Z,99690.72
2023-11-13T11:13:02.571Z,99695.93
2023-11-13T11:15:54.227Z,99688.80
2023-11-13T11:18:35.013Z,99687.84
2023-11-13T11:21:10.802Z,99682.77
2023-11-13T11:23:53.089Z,99681.40
2023-11-13T11:26:21.223Z,99676.63
2023-11-13T11:28:54.027Z,99677.75
2023-11-13T11:31:31.904Z,99672.67
2023-11-13T11:34:00.831Z,99676.02
2023-11-13T11:36:36.186Z,99678.10
2023-11-13T11:39:24.902Z,99673.33
2023-11-13T11:41:54.610Z,99671.92
2023-11-13T11:44:23.651Z,99667.14
2023-11-13T11:47:00.226Z,99671.40
2023-11-13T11:49:43.098Z,99673.95
2023-11-13T11:52:13.369Z,99667.46
2023-11-13T11:54:41.763Z,99664.29
2023-11-13T11:57:11.913Z,99651.32
2023-11-13T11:59:41.081Z,99645.96
2023-11-13T12:02:09.270Z,99642.11
2023-11-13T12:04:38.482Z,99642.23
2023-11-13T12:07:16.301Z,99645.14
2023-11-13T12:09:44.500Z,99640.71
2023-11-13T12:12:13.434Z,99636.59
2023-11-13T12:14:42.727Z,99628.94
2023-11-13T12:17:12.231Z,99627.02
2023-11-13T12:19:44.711Z,99623.16
2023-11-13T12:22:13.171Z,99622.66
2023-11-13T12:24:42.076Z,99613.86
2023-11-13T12:27:10.524Z,99604.59
2023-11-13T12:29:38.984Z,99602.70
2023-11-13T12:32:13.301Z,99592.91
2023-11-13T12:37:30.612Z,99583.45
2023-11-13T12:40:05.325Z,99578.69
2023-11-13T12:42:35.216Z,99573.67
2023-11-13T12:45:09.743Z,99565.14
2023-11-13T12:47:39.041Z,99559.41
2023-11-13T12:50:08.695Z,99557.67
2023-11-13T12:52:39.520Z,99559.67
2023-11-13T12:55:15.061Z,99555.77
2023-11-13T12:57:43.613Z,99559.27
2023-11-13T13:00:17.070Z,99558.58
2023-11-13T13:02:51.506Z,99556.20
2023-11-13T13:05:31.420Z,99556.55
2023-11-13T13:08:02.979Z,99549.54
2023-11-13T13:10:35.701Z,99551.21
2023-11-13T13:13:06.611Z,99545.55
2023-11-13T13:15:36.254Z,99534.71
2023-11-13T13:18:05.252Z,99538.00
2023-11-13T13:20:37.110Z,99537.20
2023-11-13T13:23:05.421Z,99538.80
2023-11-13T13:25:37.421Z,99536.84
2023-11-13T13:28:08.218Z,99530.09
2023-11-13T13:30:41.325Z,99527.70
2023-11-13T13:33:15.491Z,99524.18
2023-11-13T13:35:45.557Z,99527.35
2023-11-13T13:38:14.043Z,99526.23
2023-11-13T13:40:48.675Z,99523.31
2023-11-13T13:43:17.125Z,99530.98
2023-11-13T13:45:47.592Z,99528.98
2023-11-13T13:48:16.247Z,99519.61
2023-11-13T13:50:44.285Z,99514.54
2023-11-13T13:53:16.563Z,99508.23
2023-11-13T13:55:45.006Z,99506.50
2023-11-13T13:58:13.626Z,99500.21
2023-11-13T14:00:41.964Z,99494.13
2023-11-13T14:03:12.879Z,99490.79
2023-11-13T14:05:47.756Z,99486.24
2023-11-13T14:08:17.755Z,99490.14
2023-11-13T14:10:54.056Z,99486.28
2023-11-13T14:13:25.005Z,99485.70
2023-11-13T14:16:03.995Z,99481.42
2023-11-13T14:18:39.637Z,99480.46
2023-11-13T14:21:13.937Z,99475.41
2023-11-13T14:23:44.808Z,99472.30
2023-11-13T14:26:19.725Z,99477.16
2023-11-13T14:28:47.972Z,99473.30
2023-11-13T14:31:16.189Z,99470.60
2023-11-13T14:33:46.170Z,99465.14
2023-11-13T14:36:16.539Z,99460.77
2023-11-13T14:38:45.277Z,99456.98
2023-11-13T14:41:13.480Z,99450.55
2023-11-13T14:43:42.139Z,99442.92
2023-11-13T14:46:10.266Z,99434.92
2023-11-13T14:48:38.330Z,99434.05
2023-11-13T14:51:06.926Z,99433.70
2023-11-13T14:53:37.340Z,99429.22
2023-11-13T14:56:06.274Z,99428.02
2023-11-13T14:58:34.815Z,99426.84
2023-11-13T15:01:04.218Z,99425.62
2023-11-13T15:03:32.305Z,99417.05
2023-11-13T15:06:00.685Z,99408.73
2023-11-13T15:08:28.608Z,99407.44
2023-11-13T15:10:57.109Z,99403.02
2023-11-13T15:13:25.810Z,99397.20
2023-11-13T15:15:54.730Z,99398.26
2023-11-13T15:18:22.837Z,99399.78
2023-11-13T15:20:51.334Z,99394.92
2023-11-13T15:23:26.565Z,99394.76
2023-11-13T15:26:07.671Z,99385.90
2023-11-13T15:28:35.596Z,99380.70
2023-11-13T15:31:03.642Z,99374.45
2023-11-13T15:33:32.395Z,99377.02
2023-11-13T15:36:00.568Z,99377.70
2023-11-13T15:38:30.846Z,99372.51
2023-11-13T15:40:59.575Z,99366.06
2023-11-13T15:43:29.640Z,99358.38
2023-11-13T15:45:57.903Z,99358.89
2023-11-13T15:48:26.249Z,99362.97
2023-11-13T15:50:54.140Z,99361.81
2023-11-13T15:53:22.036Z,99352.67
2023-11-13T15:55:50.267Z,99354.21
2023-11-13T15:58:18.579Z,99350.05
2023-11-13T16:00:46.441Z,99344.08
2023-11-13T16:03:14.817Z,99343.52
2023-11-13T16:05:43.248Z,99342.31
2023-11-13T16:08:18.685Z,99342.64
2023-11-13T16:10:47.244Z,99345.05
2023-11-13T16:13:15.156Z,99344.80
2023-11-13T16:15:43.322Z,99338.13
2023-11-13T16:18:11.340Z,99337.95
2023-11-13T16:20:39.322Z,99331.92
2023-11-13T16:23:08.522Z,99316.79
2023-11-13T16:25:36.759Z,99315.40
2023-11-13T16:28:05.554Z,99309.01
2023-11-13T16:30:33.715Z,99306.44
2023-11-13T16:33:03.144Z,99301.72
2023-11-13T16:35:34.772Z,99295.55
2023-11-13T16:38:03.858Z,99296.76
2023-11-13T16:40:31.948Z,99291.45
2023-11-13T16:43:00.282Z,99286.44
2023-11-13T16:45:28.583Z,99284.50
2023-11-13T16:47:57.057Z,99283.13
2023-11-13T16:50:28.064Z,99280.20
2023-11-13T16:52:57.963Z,99275.64
2023-11-13T16:55:25.858Z,99259.85
2023-11-13T16:57:55.349Z,99250.23
2023-11-13T17:00:24.634Z,99239.99
2023-11-13T17:02:54.111Z,99230.63
2023-11-13T17:05:22.522Z,99224.36
2023-11-13T17:07:53.425Z,99222.61
2023-11-13T17:10:21.780Z,99218.40
2023-11-13T17:12:50.166Z,99217.52
2023-11-13T17:15:18.316Z,99218.34
2023-11-13T17:17:46.272Z,99225.73
2023-11-13T17:20:16.479Z,99226.11
2023-11-13T17:22:46.042Z,99225.10
2023-11-13T17:25:13.952Z,99222.05
2023-11-13T17:27:42.740Z,99222.92
2023-11-13T17:30:13.009Z,99224.71
2023-11-13T17:32:41.439Z,99226.27
2023-11-13T17:35:11.275Z,99215.54
2023-11-13T17:37:39.587Z,99206.54
2023-11-13T17:40:09.443Z,99198.46
2023-11-13T17:42:37.814Z,99189.39
2023-11-13T17:45:08.767Z,99181.19
2023-11-13T17:47:37.248Z,99183.63
2023-11-13T17:50:10.124Z,99181.80
2023-11-13T17:52:40.982Z,99170.55
2023-11-13T17:55:11.793Z,99157.59
2023-11-13T17:57:40.877Z,99139.56
2023-11-13T18:00:13.466Z,99121.39
2023-11-13T18:02:43.366Z,99112.75
2023-11-13T18:05:12.471Z,99104.44
2023-11-13T18:07:41.775Z,99097.37
2023-11-13T18:10:16.536Z,99098.48
2023-11-13T18:12:45.982Z,99103.45
2023-11-13T18:15:14.156Z,99102.13
2023-11-13T18:17:43.053Z,99107.90
2023-11-13T18:20:16.466Z,99103.34
2023-11-13T18:22:45.789Z,99097.58
2023-11-13T18:25:15.186Z,99088.61
2023-11-13T18:27:45.374Z,99079.90
2023-11-13T18:30:14.884Z,99069.42
2023-11-13T18:32:43.078Z,99063.80
2023-11-13T18:35:11.088Z,99064.31
2023-11-13T18:37:41.076Z,99065.52
2023-11-13T18:40:10.471Z,99063.02
2023-11-13T18:42:39.728Z,99062.70
2023-11-13T18:45:09.052Z,99065.57
2023-11-13T18:47:37.135Z,99063.95
2023-11-13T18:50:05.807Z,99050.29
2023-11-13T18:52:34.094Z,99043.02
2023-11-13T18:55:04.316Z,99046.39
2023-11-13T18:57:32.419Z,99046.99
2023-11-13T19:00:01.098Z,99035.64
2023-11-13T19:02:29.637Z,99011.75
2023-11-13T19:04:58.341Z,98999.19
2023-11-13T19:07:26.719Z,98998.84
2023-11-13T19:09:55.688Z,98999.58
2023-11-13T19:12:23.592Z,98991.63
2023-11-13T19:14:52.975Z,98992.17
2023-11-13T19:17:20.830Z,98991.89
2023-11-13T19:19:48.768Z,98995.52
2023-11-13T19:22:18.368Z,99013.70
2023-11-13T19:24:48.326Z,99012.79
2023-11-13T19:27:16.790Z,99014.66
2023-11-13T19:29:45.083Z,99003.98
2023-11-13T19:32:13.657Z,98995.20
2023-11-13T19:34:41.673Z,98991.80
2023-11-13T19:37:10.007Z,98987.38
2023-11-13T19:39:38.501Z,98988.91
2023-11-13T19:42:06.671Z,98988.85
2023-11-13T19:44:44.585Z,98978.98
2023-11-13T19:47:18.773Z,98975.25
2023-11-13T19:49:47.928Z,98967.41
2023-11-13T19:52:16.758Z,98963.96
2023-11-13T19:54:44.703Z,98958.22
2023-11-13T19:57:12.700Z,98944.16
2023-11-13T19:59:44.316Z,98934.94
2023-11-13T20:02:13.451Z,98924.39
2023-11-13T20:04:41.639Z,98919.88
2023-11-13T20:07:10.108Z,98913.39
2023-11-13T20:09:41.344Z,98910.79
2023-11-13T20:12:11.286Z,98897.83
2023-11-13T20:14:39.596Z,98878.29
2023-11-13T20:17:10.012Z,98863.30
2023-11-13T20:19:38.220Z,98864.63
2023-11-13T20:22:06.148Z,98851.89
2023-11-13T20:24:34.658Z,98844.27
2023-11-13T20:27:05.843Z,98836.10
2023-11-13T20:29:33.749Z,98839.29
2023-11-13T20:32:01.818Z,98830.95
2023-11-13T20:34:31.376Z,98812.27
2023-11-13T20:36:59.532Z,98791.36
2023-11-13T20:39:28.270Z,98788.91
2023-11-13T20:41:58.843Z,98775.30
2023-11-13T20:44:30.138Z,98764.52
2023-11-13T20:46:58.505Z,98764.26
2023-11-13T20:49:26.631Z,98750.69
2023-11-13T20:51:54.823Z,98731.02
2023-11-13T20:54:22.753Z,98705.91
2023-11-13T20:56:51.613Z,98700.38
2023-11-13T20:59:19.786Z,98693.92
2023-11-13T21:01:48.393Z,98693.63
2023-11-13T21:04:18.864Z,98688.44
2023-11-13T21:06:47.106Z,98678.86
2023-11-13T21:09:16.809Z,98662.46
2023-11-13T21:11:45.505Z,98657.90
2023-11-13T21:14:13.847Z,98663.88
2023-11-13T21:16:41.732Z,98662.11
2023-11-13T21:19:09.840Z,98654.89
2023-11-13T21:21:37.669Z,98641.55
2023-11-13T21:24:10.314Z,98631.74
2023-11-13T21:26:38.181Z,98634.52
2023-11-13T21:29:06.102Z,98634.77
2023-11-13T21:31:34.857Z,98632.84
2023-11-13T21:34:02.860Z,98639.19
2023-11-13T21:36:30.628Z,98637.44
2023-11-13T21:38:58.880Z,98627.02
2023-11-13T21:41:26.977Z,98618.55
2023-11-13T21:43:55.311Z,98614.67
2023-11-13T21:46:23.576Z,98603.44
2023-11-13T21:48:51.707Z,98611.39
2023-11-13T21:51:20.284Z,98603.70
2023-11-13T21:53:48.408Z,98597.76
2023-11-13T21:56:16.255Z,98578.73
2023-11-13T21:58:44.110Z,98571.88
2023-11-13T22:01:15.402Z,98581.39
2023-11-13T22:03:44.318Z,98568.25
2023-11-13T22:06:12.996Z,98554.99
2023-11-13T22:08:40.982Z,98548.63
2023-11-13T22:11:09.465Z,98547.63
2023-11-13T22:13:37.660Z,98551.08
2023-11-13T22:16:06.653Z,98560.54
2023-11-13T22:18:35.205Z,98572.31
2023-11-13T22:21:03.713Z,98578.91
2023-11-13T22:23:33.297Z,98573.03
2023-11-13T22:26:01.391Z,98585.39
2023-11-13T22:28:29.548Z,98589.98
2023-11-13T22:30:57.685Z,98590.61
2023-11-13T22:33:27.036Z,98595.93
2023-11-13T22:35:54.852Z,98596.83
2023-11-13T22:38:22.859Z,98602.91
2023-11-13T22:40:50.730Z,98611.77
2023-11-13T22:43:18.629Z,98598.92
2023-11-13T22:45:46.836Z,98613.70
2023-11-13T22:48:14.842Z,98620.71
2023-11-13T22:50:42.712Z,98620.27
2023-11-13T22:53:10.721Z,98615.19
2023-11-13T22:55:38.750Z,98607.93
2023-11-13T22:58:06.886Z,98624.15
2023-11-13T23:00:38.242Z,98609.02
2023-11-13T23:03:11.648Z,98619.15
2023-11-13T23:05:40.290Z,98602.67
2023-11-13T23:08:08.122Z,98585.41
2023-11-13T23:10:36.125Z,98575.70
2023-11-13T23:13:04.337Z,98575.29
2023-11-13T23:15:33.060Z,98583.51
2023-11-13T23:18:01.086Z,98599.96
2023-11-13T23:20:30.518Z,98595.13
2023-11-13T23:22:58.355Z,98598.64
2023-11-13T23:25:28.667Z,98597.04
2023-11-13T23:27:57.178Z,98613.41
2023-11-13T23:30:25.078Z,98621.31
2023-11-13T23:32:53.155Z,98600.40
2023-11-13T23:35:21.174Z,98588.12
2023-11-13T23:37:49.480Z,98586.73
2023-11-13T23:40:17.422Z,98587.90
2023-11-13T23:42:45.560Z,98570.86
2023-11-13T23:45:13.442Z,98565.73
2023-11-13T23:47:41.697Z,98539.88
2023-11-13T23:50:12.651Z,98536.83
2023-11-13T23:52:41.043Z,98536.08
2023-11-13T23:55:09.701Z,98531.31
2023-11-13T23:57:37.791Z,98547.71
